Map

Track Data

SID SEASON NUMBER BASIN SUBBASIN NAME ISO_TIME NATURE LAT LON WMO_WIND WMO_PRES WMO_AGENCY TRACK_TYPE DIST2LAND LANDFALL IFLAG USA_AGENCY USA_ATCF_ID USA_LAT USA_LON USA_RECORD USA_STATUS USA_WIND USA_PRES USA_SSHS USA_R34_NE USA_R34_SE USA_R34_SW USA_R34_NW USA_R50_NE USA_R50_SE USA_R50_SW USA_R50_NW USA_R64_NE USA_R64_SE USA_R64_SW USA_R64_NW USA_POCI USA_ROCI USA_RMW USA_EYE TOKYO_LAT TOKYO_LON TOKYO_GRADE TOKYO_WIND TOKYO_PRES TOKYO_R50_DIR TOKYO_R50_LONG TOKYO_R50_SHORT TOKYO_R30_DIR TOKYO_R30_LONG TOKYO_R30_SHORT TOKYO_LAND CMA_LAT CMA_LON CMA_CAT CMA_WIND CMA_PRES HKO_LAT HKO_LON HKO_CAT HKO_WIND HKO_PRES NEWDELHI_LAT NEWDELHI_LON NEWDELHI_GRADE NEWDELHI_WIND NEWDELHI_PRES NEWDELHI_CI NEWDELHI_DP NEWDELHI_POCI REUNION_LAT REUNION_LON REUNION_TYPE REUNION_WIND REUNION_PRES REUNION_TNUM REUNION_CI REUNION_RMW REUNION_R34_NE REUNION_R34_SE REUNION_R34_SW REUNION_R34_NW REUNION_R50_NE REUNION_R50_SE REUNION_R50_SW REUNION_R50_NW REUNION_R64_NE REUNION_R64_SE REUNION_R64_SW REUNION_R64_NW BOM_LAT BOM_LON BOM_TYPE BOM_WIND BOM_PRES BOM_TNUM BOM_CI BOM_RMW BOM_R34_NE BOM_R34_SE BOM_R34_SW BOM_R34_NW BOM_R50_NE BOM_R50_SE BOM_R50_SW BOM_R50_NW BOM_R64_NE BOM_R64_SE BOM_R64_SW BOM_R64_NW BOM_ROCI BOM_POCI BOM_EYE BOM_POS_METHOD BOM_PRES_METHOD NADI_LAT NADI_LON NADI_CAT NADI_WIND NADI_PRES WELLINGTON_LAT WELLINGTON_LON WELLINGTON_WIND WELLINGTON_PRES DS824_LAT DS824_LON DS824_STAGE DS824_WIND DS824_PRES TD9636_LAT TD9636_LON TD9636_STAGE TD9636_WIND TD9636_PRES TD9635_LAT TD9635_LON TD9635_WIND TD9635_PRES TD9635_ROCI NEUMANN_LAT NEUMANN_LON NEUMANN_CLASS NEUMANN_WIND NEUMANN_PRES MLC_LAT MLC_LON MLC_CLASS MLC_WIND MLC_PRES USA_GUST BOM_GUST BOM_GUST_PER REUNION_GUST REUNION_GUST_PER USA_SEAHGT USA_SEARAD_NE USA_SEARAD_SE USA_SEARAD_SW USA_SEARAD_NW STORM_SPEED STORM_DIR
1890021S12082 1890 6 SI MM NOT_NAMED 1890-01-21 06:00:00 NR -11.7000 82.0000 main 1978 1977 _____O________ -1 -11.7000 82.0000 99 9.90000 2 281
1890021S12082 1890 6 SI MM NOT_NAMED 1890-01-21 09:00:00 NR -11.6833 81.9065 main 1977 1976 _____P________ -1 -11.6833 81.9065 99 2 279
1890021S12082 1890 6 SI MM NOT_NAMED 1890-01-21 12:00:00 NR -11.6681 81.8075 main 1976 1975 _____P________ -1 -11.6681 81.8075 99 2 278
1890021S12082 1890 6 SI MM NOT_NAMED 1890-01-21 15:00:00 NR -11.6562 81.6979 main 1975 1963 _____P________ -1 -11.6562 81.6979 99 2 275
1890021S12082 1890 6 SI MM NOT_NAMED 1890-01-21 18:00:00 NR -11.6491 81.5721 main 1963 1962 _____P________ -1 -11.6491 81.5721 99 3 272
1890021S12082 1890 6 SI MM NOT_NAMED 1890-01-21 21:00:00 NR -11.6483 81.4249 main 1962 1962 _____P________ -1 -11.6483 81.4249 99 3 269
1890021S12082 1890 6 SI MM NOT_NAMED 1890-01-22 00:00:00 NR -11.6555 81.2507 main 1973 1972 _____P________ -1 -11.6555 81.2507 99 4 266
1890021S12082 1890 6 SI MM NOT_NAMED 1890-01-22 03:00:00 NR -11.6722 81.0442 main 1972 1972 _____P________ -1 -11.6722 81.0442 99 4 264
1890021S12082 1890 6 SI MM NOT_NAMED 1890-01-22 06:00:00 NR -11.7000 80.8000 main 1972 1971 _____O________ -1 -11.7000 80.8000 99 9.90000 5 263
1890021S12082 1890 6 SI MM NOT_NAMED 1890-01-22 09:00:00 NR -11.7399 80.5149 main 1972 1972 _____P________ -1 -11.7399 80.5149 99 6 261
1890021S12082 1890 6 SI MM NOT_NAMED 1890-01-22 12:00:00 NR -11.7915 80.1948 main 1983 1983 _____P________ -1 -11.7915 80.1948 99 7 260
1890021S12082 1890 6 SI MM NOT_NAMED 1890-01-22 15:00:00 NR -11.8539 79.8479 main 1996 1996 _____P________ -1 -11.8539 79.8479 99 7 259
1890021S12082 1890 6 SI MM NOT_NAMED 1890-01-22 18:00:00 NR -11.9263 79.4825 main 1998 1998 _____P________ -1 -11.9263 79.4825 99 7 258
1890021S12082 1890 6 SI MM NOT_NAMED 1890-01-22 21:00:00 NR -12.0078 79.1068 main 2012 2012 _____P________ -1 -12.0078 79.1068 99 8 257
1890021S12082 1890 6 SI MM NOT_NAMED 1890-01-23 00:00:00 NR -12.0977 78.7290 main 2027 2027 _____P________ -1 -12.0977 78.7290 99 8 256
1890021S12082 1890 6 SI MM NOT_NAMED 1890-01-23 03:00:00 NR -12.1954 78.3573 main 2042 2042 _____P________ -1 -12.1954 78.3573 99 7 254
1890021S12082 1890 6 SI MM NOT_NAMED 1890-01-23 06:00:00 NR -12.3000 78.0000 reunion main 2059 2059 _____O________ -1 -12.3000 78.0000 99 9.90000 7 253
1890021S12082 1890 6 SI MM NOT_NAMED 1890-01-23 09:00:00 NR -12.3984 77.6853 main 2075 2075 _____P________ -1 -12.3984 77.6853 99 6 251
1890021S12082 1890 6 SI MM NOT_NAMED 1890-01-23 12:00:00 NR -12.5043 77.3807 main 2091 2091 _____P________ -1 -12.5043 77.3807 99 6 249
1890021S12082 1890 6 SI MM NOT_NAMED 1890-01-23 15:00:00 NR -12.6180 77.0850 main 2108 2108 _____P________ -1 -12.6180 77.0850 99 6 248
1890021S12082 1890 6 SI MM NOT_NAMED 1890-01-23 18:00:00 NR -12.7392 76.7970 main 2125 2125 _____P________ -1 -12.7392 76.7970 99 6 246
1890021S12082 1890 6 SI MM NOT_NAMED 1890-01-23 21:00:00 NR -12.8680 76.5157 main 2154 2131 _____P________ -1 -12.8680 76.5157 99 6 244
1890021S12082 1890 6 SI MM NOT_NAMED 1890-01-24 00:00:00 NR -13.0045 76.2399 main 2121 2097 _____P________ -1 -13.0045 76.2399 99 6 242
1890021S12082 1890 6 SI MM NOT_NAMED 1890-01-24 03:00:00 NR -13.1485 75.9684 main 2097 2058 _____P________ -1 -13.1485 75.9684 99 6 241
1890021S12082 1890 6 SI MM NOT_NAMED 1890-01-24 06:00:00 NR -13.3000 75.7000 reunion main 2058 2024 _____O________ -1 -13.3000 75.7000 99 9.90000 6 240
1890021S12082 1890 6 SI MM NOT_NAMED 1890-01-24 09:00:00 NR -13.4524 75.4205 main 2019 1995 _____P________ -1 -13.4524 75.4205 99 6 240
1890021S12082 1890 6 SI MM NOT_NAMED 1890-01-24 12:00:00 NR -13.6129 75.1442 main 1985 1956 _____P________ -1 -13.6129 75.1442 99 6 238
1890021S12082 1890 6 SI MM NOT_NAMED 1890-01-24 15:00:00 NR -13.7806 74.8721 main 1956 1922 _____P________ -1 -13.7806 74.8721 99 6 237
1890021S12082 1890 6 SI MM NOT_NAMED 1890-01-24 18:00:00 NR -13.9547 74.6048 main 1917 1893 _____P________ -1 -13.9547 74.6048 99 6 235
1890021S12082 1890 6 SI MM NOT_NAMED 1890-01-24 21:00:00 NR -14.1345 74.3431 main 1883 1855 _____P________ -1 -14.1345 74.3431 99 6 234
1890021S12082 1890 6 SI MM NOT_NAMED 1890-01-25 00:00:00 NR -14.3192 74.0879 main 1855 1826 _____P________ -1 -14.3192 74.0879 99 6 233
1890021S12082 1890 6 SI MM NOT_NAMED 1890-01-25 03:00:00 NR -14.5080 73.8399 main 1816 1787 _____P________ -1 -14.5080 73.8399 99 6 231
1890021S12082 1890 6 SI MM NOT_NAMED 1890-01-25 06:00:00 NR -14.7000 73.6000 reunion main 1787 1759 _____O________ -1 -14.7000 73.6000 99 9.90000 6 230
1890021S12082 1890 6 SI MM NOT_NAMED 1890-01-25 09:00:00 NR -14.8768 73.3796 main 1759 1735 _____P________ -1 -14.8768 73.3796 99 6 229
1890021S12082 1890 6 SI MM NOT_NAMED 1890-01-25 12:00:00 NR -15.0564 73.1691 main 1731 1707 _____P________ -1 -15.0564 73.1691 99 5 228
1890021S12082 1890 6 SI MM NOT_NAMED 1890-01-25 15:00:00 NR -15.2405 72.9648 main 1707 1678 _____P________ -1 -15.2405 72.9648 99 5 226
1890021S12082 1890 6 SI MM NOT_NAMED 1890-01-25 18:00:00 NR -15.4313 72.7627 main 1678 1650 _____P________ -1 -15.4313 72.7627 99 6 225
1890021S12082 1890 6 SI MM NOT_NAMED 1890-01-25 21:00:00 NR -15.6307 72.5591 main 1650 1622 _____P________ -1 -15.6307 72.5591 99 6 224
1890021S12082 1890 6 SI MM NOT_NAMED 1890-01-26 00:00:00 NR -15.8407 72.3500 main 1622 1581 _____P________ -1 -15.8407 72.3500 99 6 223
1890021S12082 1890 6 SI MM NOT_NAMED 1890-01-26 03:00:00 NR -16.0631 72.1316 main 1581 1553 _____P________ -1 -16.0631 72.1316 99 6 223
1890021S12082 1890 6 SI MM NOT_NAMED 1890-01-26 06:00:00 NR -16.3000 71.9000 reunion main 1553 1526 _____O________ -1 -16.3000 71.9000 99 9.90000 7 225
1890021S12082 1890 6 SI MM NOT_NAMED 1890-01-26 09:00:00 NR -16.5224 71.6469 main 1516 1489 _____P________ -1 -16.5224 71.6469 99 7 228
1890021S12082 1890 6 SI MM NOT_NAMED 1890-01-26 12:00:00 NR -16.7557 71.3819 main 1485 1448 _____P________ -1 -16.7557 71.3819 99 7 227
1890021S12082 1890 6 SI MM NOT_NAMED 1890-01-26 15:00:00 NR -17.0035 71.1063 main 1448 1408 _____P________ -1 -17.0035 71.1063 99 7 226
1890021S12082 1890 6 SI MM NOT_NAMED 1890-01-26 18:00:00 NR -17.2700 70.8209 main 1408 1371 _____P________ -1 -17.2700 70.8209 99 8 225
1890021S12082 1890 6 SI MM NOT_NAMED 1890-01-26 21:00:00 NR -17.5589 70.5267 main 1368 1329 _____P________ -1 -17.5589 70.5267 99 8 223
1890021S12082 1890 6 SI MM NOT_NAMED 1890-01-27 00:00:00 NR -17.8742 70.2245 main 1329 1291 _____P________ -1 -17.8742 70.2245 99 9 221
1890021S12082 1890 6 SI MM NOT_NAMED 1890-01-27 03:00:00 NR -18.2199 69.9154 main 1291 1251 _____P________ -1 -18.2199 69.9154 99 9 219
1890021S12082 1890 6 SI MM NOT_NAMED 1890-01-27 06:00:00 NR -18.6000 69.6000 reunion main 1251 1211 _____O________ -1 -18.6000 69.6000 99 9.90000 11 217
1890021S12082 1890 6 SI MM NOT_NAMED 1890-01-27 09:00:00 NR -19.0789 69.2428 main 1200 1162 _____P________ -1 -19.0789 69.2428 99 12 215
1890021S12082 1890 6 SI MM NOT_NAMED 1890-01-27 12:00:00 NR -19.6009 68.8716 main 1162 1116 _____P________ -1 -19.6009 68.8716 99 13 213
1890021S12082 1890 6 SI MM NOT_NAMED 1890-01-27 15:00:00 NR -20.1474 68.4960 main 1116 1073 _____P________ -1 -20.1474 68.4960 99 13 212
1890021S12082 1890 6 SI MM NOT_NAMED 1890-01-27 18:00:00 NR -20.6998 68.1255 main 1073 1043 _____P________ -1 -20.6998 68.1255 99 13 212
1890021S12082 1890 6 SI MM NOT_NAMED 1890-01-27 21:00:00 NR -21.2396 67.7701 main 1044 1017 _____P________ -1 -21.2396 67.7701 99 12 211
1890021S12082 1890 6 SI MM NOT_NAMED 1890-01-28 00:00:00 NR -21.7484 67.4403 main 1008 994 _____P________ -1 -21.7484 67.4403 99 11 211
1890021S12082 1890 6 SI MM NOT_NAMED 1890-01-28 03:00:00 NR -22.2080 67.1466 main 986 973 _____P________ -1 -22.2080 67.1466 99 10 210
1890021S12082 1890 6 SI MM NOT_NAMED 1890-01-28 06:00:00 NR -22.6000 66.9000 reunion main 975 964 _____O________ -1 -22.6000 66.9000 99 9.90000 8 210
1890021S12082 1890 6 SI MM NOT_NAMED 1890-01-28 09:00:00 NR -22.9113 66.7084 main 964 957 _____P________ -1 -22.9113 66.7084 99 6 209
1890021S12082 1890 6 SI MM NOT_NAMED 1890-01-28 12:00:00 NR -23.1478 66.5680 main 961 954 _____P________ -1 -23.1478 66.5680 99 5 208
1890021S12082 1890 6 SI MM NOT_NAMED 1890-01-28 15:00:00 NR -23.3205 66.4719 main 958 952 _____P________ -1 -23.3205 66.4719 99 3 206
1890021S12082 1890 6 SI MM NOT_NAMED 1890-01-28 18:00:00 NR -23.4401 66.4128 main 952 952 _____P________ -1 -23.4401 66.4128 99 2 203
1890021S12082 1890 6 SI MM NOT_NAMED 1890-01-28 21:00:00 NR -23.5172 66.3835 main 956 956 _____P________ -1 -23.5172 66.3835 99 1 201
1890021S12082 1890 6 SI MM NOT_NAMED 1890-01-29 00:00:00 NR -23.5625 66.3766 main 960 960 _____P________ -1 -23.5625 66.3766 99 1 0
1890021S12082 1890 6 SI MM NOT_NAMED 1890-01-29 03:00:00 NR -23.5865 66.3845 main 960 960 _____P________ -1 -23.5865 66.3845 99 0 162
1890021S12082 1890 6 SI MM NOT_NAMED 1890-01-29 06:00:00 NR -23.6000 66.4000 reunion main 960 _____O________ -1 -23.6000 66.4000 99 9.90000 0 0

About IBTrACS Database

This database is a web-friendly format of International Best Track Archive for Climate Stewardship (IBTrACS), a global best track data archive curated by NOAA dating back to 1842.

Updated: 2021-12-06